TimeMST,TemperatureF,Dew PointF,Humidity,Sea Level PressureIn,VisibilityMPH,Wind Direction,Wind SpeedMPH,Gust SpeedMPH,PrecipitationIn,Events,Conditions,WindDirDegrees,DateUTC
1:53 AM,24.1,15.1,69,30.32,10.0,WSW,8.1,-,N/A,,Clear,240,2013-03-01 08:53:00
2:53 AM,26.1,15.1,63,30.31,10.0,WSW,6.9,-,N/A,,Scattered Clouds,250,2013-03-01 09:53:00
5:53 AM,30.0,12.9,49,30.32,10.0,South,9.2,-,N/A,,Mostly Cloudy,190,2013-03-01 12:53:00
6:53 AM,28.0,15.1,58,30.33,10.0,Calm,Calm,-,N/A,,Overcast,0,2013-03-01 13:53:00
7:53 AM,30.9,17.1,57,30.32,10.0,SSW,4.6,-,N/A,,Overcast,200,2013-03-01 14:53:00
8:53 AM,33.1,19.0,56,30.30,10.0,SSE,6.9,-,N/A,,Overcast,160,2013-03-01 15:53:00
9:53 AM,35.1,19.9,54,30.32,10.0,Calm,Calm,-,N/A,,Overcast,0,2013-03-01 16:53:00
10:53 AM,37.0,23.0,57,30.31,9.0,Calm,Calm,-,0.00,,Overcast,0,2013-03-01 17:53:00
11:53 AM,41.0,27.0,57,30.29,10.0,Variable,3.5,-,N/A,,Overcast,0,2013-03-01 18:53:00
12:29 PM,39.2,30.2,70,30.23,10.0,NW,6.9,-,N/A,,Overcast,310,2013-03-01 19:29:00
12:53 PM,39.9,30.9,70,30.28,10.0,SW,6.9,-,N/A,,Overcast,230,2013-03-01 19:53:00
1:53 PM,43.0,33.1,68,30.25,10.0,SW,6.9,-,N/A,,Partly Cloudy,220,2013-03-01 20:53:00
2:53 PM,45.0,30.9,58,30.23,10.0,SSW,3.5,-,N/A,,Mostly Cloudy,200,2013-03-01 21:53:00
3:53 PM,46.9,28.0,48,30.25,10.0,Calm,Calm,-,N/A,,Overcast,0,2013-03-01 22:53:00
4:53 PM,44.1,26.1,49,30.25,10.0,South,4.6,-,N/A,,Mostly Cloudy,190,2013-03-01 23:53:00
5:53 PM,44.1,25.0,47,30.24,10.0,SSW,5.8,-,N/A,,Partly Cloudy,200,2013-03-02 00:53:00
7:53 PM,41.0,27.0,57,30.25,10.0,WNW,6.9,-,N/A,,Mostly Cloudy,290,2013-03-02 02:53:00
8:53 PM,44.1,26.1,49,30.23,10.0,NNW,9.2,-,N/A,,Clear,340,2013-03-02 03:53:00
9:53 PM,43.0,25.0,49,30.24,10.0,North,4.6,-,N/A,,Clear,350,2013-03-02 04:53:00
10:53 PM,37.9,24.1,57,30.24,10.0,WSW,9.2,-,N/A,,Clear,240,2013-03-02 05:53:00
11:53 PM,43.0,23.0,45,30.22,10.0,Calm,Calm,-,N/A,,Clear,0,2013-03-02 06:53:00